METAR AND TAF INFORMATION
METAR FOR LTBZ
ADDS - METARS form results

(0934 UTC 21 January 2019)
Data provider http://aviationweather.gov/metar/data/
 
Forecast for: LTBZ (MARISA , TR)
Text: TAF LTBZ 210740Z 2109/2118 10008KT 9999 -RA BKN030 BKN100
Forecast period: 0900 to 1800 UTC 21 January 2019
Forecast type: FROM: standard forecast or significant change
Winds: from the E (100 degrees) at 9 MPH (8 knots; 4.1 m/s)
Visibility: 6 or more miles 10+ km)
Ceiling: 3000 feet AGL
Clouds: broken clouds at 3000 feet AGL
broken clouds at 10000 feet AGL
Weather: -RA  (light rain)

 AIRPORT MAP

 RUNWAY INFORMATION

 AIRPORT FREQUENCIES

 AIRPORT NEAR NAVIGATION AIDS



Copyright © 2007-2018 Istanbul Virtual Airlines.All rights reserved.Developed by Arca Erdik and Aykut Alp Kurt.